sensor_id;sensor_type;location;lat;lon;timestamp;P1;durP1;ratioP1;P2;durP2;ratioP2
42866;SDS011;39461;40.948;73.006;2022-09-09T03:20:11;31.83;;;15.18;;
42866;SDS011;39461;40.948;73.006;2022-09-09T03:22:44;29.73;;;15.63;;
42866;SDS011;39461;40.948;73.006;2022-09-09T03:25:21;39.58;;;15.90;;
42866;SDS011;39461;40.948;73.006;2022-09-09T03:27:54;29.85;;;13.40;;
42866;SDS011;39461;40.948;73.006;2022-09-09T03:30:29;33.22;;;13.20;;
42866;SDS011;39461;40.948;73.006;2022-09-09T03:33:04;27.98;;;12.40;;
42866;SDS011;39461;40.948;73.006;2022-09-09T03:35:33;30.08;;;11.75;;
42866;SDS011;39461;40.948;73.006;2022-09-09T03:38:06;26.25;;;11.95;;
42866;SDS011;39461;40.948;73.006;2022-09-09T03:40:48;24.17;;;11.50;;
42866;SDS011;39461;40.948;73.006;2022-09-09T03:43:25;22.65;;;10.10;;
42866;SDS011;39461;40.948;73.006;2022-09-09T03:45:58;30.55;;;12.88;;
42866;SDS011;39461;40.948;73.006;2022-09-09T03:48:33;31.83;;;12.00;;
42866;SDS011;39461;40.948;73.006;2022-09-09T03:51:06;24.25;;;10.23;;
42866;SDS011;39461;40.948;73.006;2022-09-09T03:53:41;35.72;;;10.00;;
42866;SDS011;39461;40.948;73.006;2022-09-09T03:56:10;38.53;;;11.02;;
42866;SDS011;39461;40.948;73.006;2022-09-09T03:58:43;29.73;;;10.85;;
42866;SDS011;39461;40.948;73.006;2022-09-09T04:01:16;21.25;;;10.95;;
42866;SDS011;39461;40.948;73.006;2022-09-09T04:03:58;21.45;;;10.02;;
42866;SDS011;39461;40.948;73.006;2022-09-09T04:06:31;23.33;;;9.93;;
42866;SDS011;39461;40.948;73.006;2022-09-09T04:09:04;21.65;;;9.57;;
42866;SDS011;39461;40.948;73.006;2022-09-09T04:11:37;39.88;;;12.55;;
42866;SDS011;39461;40.948;73.006;2022-09-09T04:14:10;26.27;;;11.30;;
42866;SDS011;39461;40.948;73.006;2022-09-09T04:19:44;41.53;;;13.68;;
42866;SDS011;39461;40.948;73.006;2022-09-09T04:22:17;28.77;;;12.18;;
42866;SDS011;39461;40.948;73.006;2022-09-09T04:24:49;32.17;;;12.60;;
42866;SDS011;39461;40.948;73.006;2022-09-09T04:27:18;41.28;;;12.75;;
42866;SDS011;39461;40.948;73.006;2022-09-09T04:29:51;31.98;;;12.00;;
42866;SDS011;39461;40.948;73.006;2022-09-09T04:32:26;24.15;;;10.15;;
42866;SDS011;39461;40.948;73.006;2022-09-09T04:34:59;26.27;;;8.45;;
42866;SDS011;39461;40.948;73.006;2022-09-09T04:37:32;23.77;;;10.65;;
42866;SDS011;39461;40.948;73.006;2022-09-09T04:40:05;30.33;;;10.63;;
42866;SDS011;39461;40.948;73.006;2022-09-09T04:42:41;22.90;;;11.75;;
42866;SDS011;39461;40.948;73.006;2022-09-09T04:45:15;19.35;;;9.70;;
42866;SDS011;39461;40.948;73.006;2022-09-09T04:47:48;34.05;;;11.90;;
42866;SDS011;39461;40.948;73.006;2022-09-09T04:50:23;28.33;;;9.57;;
42866;SDS011;39461;40.948;73.006;2022-09-09T04:53:02;26.63;;;10.45;;
42866;SDS011;39461;40.948;73.006;2022-09-09T04:55:36;25.35;;;10.20;;
42866;SDS011;39461;40.948;73.006;2022-09-09T04:58:09;35.75;;;11.68;;
42866;SDS011;39461;40.948;73.006;2022-09-09T05:00:42;26.38;;;10.15;;
42866;SDS011;39461;40.948;73.006;2022-09-09T05:03:15;27.00;;;10.60;;
42866;SDS011;39461;40.948;73.006;2022-09-09T05:05:53;32.85;;;12.68;;
42866;SDS011;39461;40.948;73.006;2022-09-09T05:08:28;25.25;;;9.20;;
42866;SDS011;39461;40.948;73.006;2022-09-09T05:11:03;37.95;;;11.13;;
42866;SDS011;39461;40.948;73.006;2022-09-09T05:13:42;22.75;;;9.30;;
42866;SDS011;39461;40.948;73.006;2022-09-09T05:16:15;24.23;;;9.32;;
42866;SDS011;39461;40.948;73.006;2022-09-09T05:18:49;22.73;;;8.60;;
42866;SDS011;39461;40.948;73.006;2022-09-09T05:21:25;33.75;;;8.95;;
42866;SDS011;39461;40.948;73.006;2022-09-09T05:24:00;21.67;;;9.23;;
42866;SDS011;39461;40.948;73.006;2022-09-09T05:26:37;32.70;;;10.52;;
42866;SDS011;39461;40.948;73.006;2022-09-09T05:29:10;22.42;;;9.70;;
42866;SDS011;39461;40.948;73.006;2022-09-09T05:31:49;28.33;;;9.77;;
42866;SDS011;39461;40.948;73.006;2022-09-09T05:34:22;28.92;;;10.35;;
42866;SDS011;39461;40.948;73.006;2022-09-09T05:36:57;28.67;;;9.13;;
42866;SDS011;39461;40.948;73.006;2022-09-09T05:39:30;29.15;;;9.48;;
42866;SDS011;39461;40.948;73.006;2022-09-09T05:42:11;20.20;;;8.50;;
42866;SDS011;39461;40.948;73.006;2022-09-09T05:44:44;30.77;;;9.65;;
42866;SDS011;39461;40.948;73.006;2022-09-09T05:47:17;29.65;;;9.48;;
42866;SDS011;39461;40.948;73.006;2022-09-09T05:49:50;27.50;;;9.05;;
42866;SDS011;39461;40.948;73.006;2022-09-09T05:52:23;62.08;;;12.18;;
42866;SDS011;39461;40.948;73.006;2022-09-09T05:54:57;28.33;;;9.68;;
42866;SDS011;39461;40.948;73.006;2022-09-09T05:57:36;25.02;;;9.23;;
42866;SDS011;39461;40.948;73.006;2022-09-09T06:00:03;29.35;;;10.57;;
42866;SDS011;39461;40.948;73.006;2022-09-09T06:02:42;30.08;;;9.68;;
42866;SDS011;39461;40.948;73.006;2022-09-09T06:05:19;20.05;;;8.85;;
42866;SDS011;39461;40.948;73.006;2022-09-09T06:07:54;32.72;;;12.48;;
42866;SDS011;39461;40.948;73.006;2022-09-09T06:10:29;28.23;;;13.75;;
42866;SDS011;39461;40.948;73.006;2022-09-09T06:13:02;31.00;;;9.10;;
42866;SDS011;39461;40.948;73.006;2022-09-09T06:15:37;36.97;;;9.10;;
42866;SDS011;39461;40.948;73.006;2022-09-09T06:18:04;29.27;;;9.52;;
42866;SDS011;39461;40.948;73.006;2022-09-09T06:20:36;27.02;;;9.43;;
42866;SDS011;39461;40.948;73.006;2022-09-09T06:23:09;25.63;;;8.55;;
42866;SDS011;39461;40.948;73.006;2022-09-09T06:25:38;18.80;;;8.02;;
42866;SDS011;39461;40.948;73.006;2022-09-09T06:28:06;21.48;;;7.45;;
42866;SDS011;39461;40.948;73.006;2022-09-09T06:30:39;22.02;;;7.95;;
42866;SDS011;39461;40.948;73.006;2022-09-09T06:33:15;22.20;;;8.48;;
42866;SDS011;39461;40.948;73.006;2022-09-09T06:35:51;28.98;;;9.20;;
42866;SDS011;39461;40.948;73.006;2022-09-09T06:38:27;18.55;;;7.15;;
42866;SDS011;39461;40.948;73.006;2022-09-09T06:41:00;39.15;;;18.67;;
42866;SDS011;39461;40.948;73.006;2022-09-09T06:43:36;18.08;;;8.25;;
42866;SDS011;39461;40.948;73.006;2022-09-09T06:46:12;17.30;;;7.55;;
42866;SDS011;39461;40.948;73.006;2022-09-09T06:48:55;22.58;;;9.10;;
42866;SDS011;39461;40.948;73.006;2022-09-09T06:51:33;20.67;;;8.57;;
42866;SDS011;39461;40.948;73.006;2022-09-09T06:54:09;21.90;;;8.60;;
42866;SDS011;39461;40.948;73.006;2022-09-09T06:56:44;24.65;;;9.38;;
42866;SDS011;39461;40.948;73.006;2022-09-09T06:59:15;24.63;;;9.88;;
42866;SDS011;39461;40.948;73.006;2022-09-09T07:01:54;36.88;;;10.05;;
42866;SDS011;39461;40.948;73.006;2022-09-09T07:04:31;23.52;;;9.48;;
42866;SDS011;39461;40.948;73.006;2022-09-09T07:07:04;21.20;;;9.13;;
42866;SDS011;39461;40.948;73.006;2022-09-09T07:09:40;24.80;;;8.90;;
42866;SDS011;39461;40.948;73.006;2022-09-09T07:12:12;26.52;;;9.82;;
42866;SDS011;39461;40.948;73.006;2022-09-09T07:14:47;24.23;;;8.75;;
42866;SDS011;39461;40.948;73.006;2022-09-09T07:17:27;30.27;;;10.65;;
42866;SDS011;39461;40.948;73.006;2022-09-09T07:20:07;28.42;;;11.90;;
42866;SDS011;39461;40.948;73.006;2022-09-09T07:22:42;33.72;;;10.68;;
42866;SDS011;39461;40.948;73.006;2022-09-09T07:25:14;25.00;;;9.02;;
42866;SDS011;39461;40.948;73.006;2022-09-09T07:27:49;25.63;;;9.77;;
42866;SDS011;39461;40.948;73.006;2022-09-09T07:30:22;24.58;;;9.55;;
42866;SDS011;39461;40.948;73.006;2022-09-09T07:32:55;32.38;;;10.15;;
42866;SDS011;39461;40.948;73.006;2022-09-09T07:35:30;18.63;;;8.57;;
42866;SDS011;39461;40.948;73.006;2022-09-09T07:38:05;27.15;;;10.00;;
42866;SDS011;39461;40.948;73.006;2022-09-09T07:40:34;36.72;;;9.07;;
42866;SDS011;39461;40.948;73.006;2022-09-09T07:43:08;33.15;;;9.90;;
42866;SDS011;39461;40.948;73.006;2022-09-09T07:45:41;27.65;;;9.27;;
42866;SDS011;39461;40.948;73.006;2022-09-09T07:48:16;28.15;;;9.75;;
42866;SDS011;39461;40.948;73.006;2022-09-09T07:50:51;33.60;;;10.10;;
42866;SDS011;39461;40.948;73.006;2022-09-09T07:56:31;31.08;;;11.52;;
42866;SDS011;39461;40.948;73.006;2022-09-09T07:59:07;36.13;;;10.65;;
42866;SDS011;39461;40.948;73.006;2022-09-09T08:01:47;25.75;;;9.50;;
42866;SDS011;39461;40.948;73.006;2022-09-09T08:04:24;21.08;;;8.85;;
42866;SDS011;39461;40.948;73.006;2022-09-09T08:06:58;31.45;;;9.30;;
42866;SDS011;39461;40.948;73.006;2022-09-09T08:09:28;33.20;;;10.10;;
42866;SDS011;39461;40.948;73.006;2022-09-09T08:12:04;30.70;;;9.63;;
42866;SDS011;39461;40.948;73.006;2022-09-09T08:14:40;27.40;;;9.55;;
42866;SDS011;39461;40.948;73.006;2022-09-09T08:17:09;26.88;;;8.82;;
42866;SDS011;39461;40.948;73.006;2022-09-09T08:19:42;33.10;;;9.15;;
42866;SDS011;39461;40.948;73.006;2022-09-09T08:22:16;37.83;;;9.52;;
42866;SDS011;39461;40.948;73.006;2022-09-09T08:24:51;35.58;;;9.30;;
42866;SDS011;39461;40.948;73.006;2022-09-09T08:27:18;33.35;;;9.82;;
42866;SDS011;39461;40.948;73.006;2022-09-09T08:29:50;33.13;;;8.65;;
42866;SDS011;39461;40.948;73.006;2022-09-09T08:32:25;29.15;;;8.73;;
42866;SDS011;39461;40.948;73.006;2022-09-09T08:35:00;24.30;;;8.40;;
42866;SDS011;39461;40.948;73.006;2022-09-09T08:37:39;23.63;;;8.38;;
42866;SDS011;39461;40.948;73.006;2022-09-09T08:40:16;31.60;;;8.95;;
42866;SDS011;39461;40.948;73.006;2022-09-09T08:43:00;22.08;;;8.15;;
42866;SDS011;39461;40.948;73.006;2022-09-09T08:45:42;31.30;;;8.65;;
42866;SDS011;39461;40.948;73.006;2022-09-09T08:48:44;27.75;;;8.25;;
42866;SDS011;39461;40.948;73.006;2022-09-09T08:51:26;26.92;;;9.25;;
42866;SDS011;39461;40.948;73.006;2022-09-09T08:54:04;27.42;;;8.95;;
42866;SDS011;39461;40.948;73.006;2022-09-09T08:56:37;32.25;;;8.77;;
42866;SDS011;39461;40.948;73.006;2022-09-09T08:59:12;31.48;;;8.73;;
42866;SDS011;39461;40.948;73.006;2022-09-09T09:02:00;34.90;;;9.52;;
42866;SDS011;39461;40.948;73.006;2022-09-09T09:10:46;29.42;;;9.55;;
42866;SDS011;39461;40.948;73.006;2022-09-09T09:13:21;36.67;;;9.40;;
42866;SDS011;39461;40.948;73.006;2022-09-09T09:19:25;26.00;;;8.65;;
42866;SDS011;39461;40.948;73.006;2022-09-09T09:25:23;48.58;;;11.18;;
42866;SDS011;39461;40.948;73.006;2022-09-09T09:28:16;28.60;;;9.40;;
42866;SDS011;39461;40.948;73.006;2022-09-09T09:35:58;29.77;;;9.27;;
42866;SDS011;39461;40.948;73.006;2022-09-09T09:38:26;48.25;;;10.82;;
42866;SDS011;39461;40.948;73.006;2022-09-09T09:41:02;45.90;;;9.43;;
42866;SDS011;39461;40.948;73.006;2022-09-09T09:43:39;37.90;;;9.82;;
42866;SDS011;39461;40.948;73.006;2022-09-09T09:46:18;30.92;;;8.70;;
42866;SDS011;39461;40.948;73.006;2022-09-09T09:49:04;21.30;;;9.18;;
42866;SDS011;39461;40.948;73.006;2022-09-09T09:51:42;24.38;;;9.10;;
42866;SDS011;39461;40.948;73.006;2022-09-09T09:54:22;39.38;;;9.88;;
42866;SDS011;39461;40.948;73.006;2022-09-09T09:57:12;26.67;;;9.75;;
42866;SDS011;39461;40.948;73.006;2022-09-09T10:02:59;44.58;;;9.63;;
42866;SDS011;39461;40.948;73.006;2022-09-09T10:05:35;31.95;;;9.40;;
42866;SDS011;39461;40.948;73.006;2022-09-09T10:08:05;38.33;;;9.63;;
42866;SDS011;39461;40.948;73.006;2022-09-09T10:10:49;40.55;;;11.30;;
42866;SDS011;39461;40.948;73.006;2022-09-09T10:23:11;37.78;;;11.52;;
42866;SDS011;39461;40.948;73.006;2022-09-09T10:43:10;38.50;;;10.75;;
42866;SDS011;39461;40.948;73.006;2022-09-09T10:48:37;38.38;;;10.68;;
42866;SDS011;39461;40.948;73.006;2022-09-09T10:51:21;44.63;;;10.90;;
42866;SDS011;39461;40.948;73.006;2022-09-09T10:57:04;44.10;;;12.65;;
42866;SDS011;39461;40.948;73.006;2022-09-09T10:59:58;43.78;;;10.57;;
42866;SDS011;39461;40.948;73.006;2022-09-09T11:02:40;44.72;;;13.93;;
42866;SDS011;39461;40.948;73.006;2022-09-09T11:10:48;42.17;;;11.48;;
42866;SDS011;39461;40.948;73.006;2022-09-09T11:16:34;39.10;;;10.20;;
42866;SDS011;39461;40.948;73.006;2022-09-09T11:19:21;37.92;;;10.93;;
42866;SDS011;39461;40.948;73.006;2022-09-09T11:22:04;58.10;;;12.20;;
42866;SDS011;39461;40.948;73.006;2022-09-09T11:24:43;53.72;;;14.25;;
42866;SDS011;39461;40.948;73.006;2022-09-09T11:30:45;39.72;;;14.00;;
42866;SDS011;39461;40.948;73.006;2022-09-09T11:36:38;52.15;;;15.45;;
42866;SDS011;39461;40.948;73.006;2022-09-09T11:39:38;64.55;;;15.43;;
42866;SDS011;39461;40.948;73.006;2022-09-09T11:42:23;43.20;;;13.23;;
42866;SDS011;39461;40.948;73.006;2022-09-09T11:44:57;33.95;;;12.10;;
42866;SDS011;39461;40.948;73.006;2022-09-09T11:51:00;43.10;;;13.20;;
42866;SDS011;39461;40.948;73.006;2022-09-09T11:56:49;43.28;;;13.60;;
42866;SDS011;39461;40.948;73.006;2022-09-09T11:59:21;45.15;;;12.88;;
42866;SDS011;39461;40.948;73.006;2022-09-09T12:07:34;41.90;;;13.77;;
42866;SDS011;39461;40.948;73.006;2022-09-09T12:10:23;32.10;;;11.95;;
42866;SDS011;39461;40.948;73.006;2022-09-09T12:13:18;38.50;;;13.10;;
42866;SDS011;39461;40.948;73.006;2022-09-09T12:15:52;34.65;;;11.63;;
42866;SDS011;39461;40.948;73.006;2022-09-09T12:18:32;35.95;;;11.93;;
42866;SDS011;39461;40.948;73.006;2022-09-09T12:21:21;31.13;;;10.07;;
42866;SDS011;39461;40.948;73.006;2022-09-09T12:24:08;18.05;;;9.10;;
42866;SDS011;39461;40.948;73.006;2022-09-09T12:32:34;16.02;;;8.20;;
42866;SDS011;39461;40.948;73.006;2022-09-09T12:35:26;23.65;;;9.90;;
42866;SDS011;39461;40.948;73.006;2022-09-09T12:38:01;27.73;;;10.73;;
42866;SDS011;39461;40.948;73.006;2022-09-09T12:43:31;56.13;;;23.35;;
42866;SDS011;39461;40.948;73.006;2022-09-09T12:46:07;46.28;;;15.43;;
42866;SDS011;39461;40.948;73.006;2022-09-09T12:48:40;53.95;;;14.80;;
42866;SDS011;39461;40.948;73.006;2022-09-09T12:51:31;50.13;;;17.27;;
42866;SDS011;39461;40.948;73.006;2022-09-09T12:57:09;68.30;;;25.65;;
42866;SDS011;39461;40.948;73.006;2022-09-09T12:59:46;54.22;;;19.30;;
42866;SDS011;39461;40.948;73.006;2022-09-09T13:02:23;57.13;;;17.55;;
42866;SDS011;39461;40.948;73.006;2022-09-09T13:04:53;41.28;;;16.13;;
42866;SDS011;39461;40.948;73.006;2022-09-09T13:07:21;42.60;;;16.55;;
42866;SDS011;39461;40.948;73.006;2022-09-09T13:09:50;40.67;;;16.25;;
42866;SDS011;39461;40.948;73.006;2022-09-09T13:12:25;55.50;;;15.75;;
42866;SDS011;39461;40.948;73.006;2022-09-09T13:15:00;44.60;;;16.45;;
42866;SDS011;39461;40.948;73.006;2022-09-09T13:17:27;36.30;;;16.55;;
42866;SDS011;39461;40.948;73.006;2022-09-09T13:19:54;38.00;;;17.80;;
42866;SDS011;39461;40.948;73.006;2022-09-09T13:22:37;49.55;;;18.08;;
42866;SDS011;39461;40.948;73.006;2022-09-09T13:25:18;45.08;;;18.25;;
42866;SDS011;39461;40.948;73.006;2022-09-09T13:27:55;49.17;;;22.30;;
42866;SDS011;39461;40.948;73.006;2022-09-09T13:30:32;58.00;;;24.40;;
42866;SDS011;39461;40.948;73.006;2022-09-09T13:36:09;65.88;;;23.23;;
42866;SDS011;39461;40.948;73.006;2022-09-09T13:41:33;69.30;;;21.38;;
42866;SDS011;39461;40.948;73.006;2022-09-09T13:49:48;63.63;;;21.75;;
42866;SDS011;39461;40.948;73.006;2022-09-09T13:52:16;66.18;;;24.67;;
42866;SDS011;39461;40.948;73.006;2022-09-09T13:54:52;72.70;;;34.55;;
42866;SDS011;39461;40.948;73.006;2022-09-09T13:57:28;64.45;;;29.70;;
42866;SDS011;39461;40.948;73.006;2022-09-09T14:00:03;61.20;;;24.13;;
42866;SDS011;39461;40.948;73.006;2022-09-09T14:02:32;60.40;;;23.80;;
42866;SDS011;39461;40.948;73.006;2022-09-09T14:05:07;65.53;;;28.58;;
42866;SDS011;39461;40.948;73.006;2022-09-09T14:07:42;88.85;;;37.97;;
42866;SDS011;39461;40.948;73.006;2022-09-09T14:10:17;94.22;;;39.03;;
42866;SDS011;39461;40.948;73.006;2022-09-09T14:12:52;100.28;;;38.85;;
42866;SDS011;39461;40.948;73.006;2022-09-09T14:15:19;92.03;;;37.80;;
42866;SDS011;39461;40.948;73.006;2022-09-09T14:17:53;88.07;;;40.92;;
42866;SDS011;39461;40.948;73.006;2022-09-09T14:20:22;85.53;;;40.15;;
42866;SDS011;39461;40.948;73.006;2022-09-09T14:22:55;83.43;;;36.05;;
42866;SDS011;39461;40.948;73.006;2022-09-09T14:25:24;80.88;;;35.10;;
42866;SDS011;39461;40.948;73.006;2022-09-09T14:27:50;83.22;;;34.15;;
42866;SDS011;39461;40.948;73.006;2022-09-09T14:30:25;73.13;;;32.03;;
42866;SDS011;39461;40.948;73.006;2022-09-09T14:33:00;70.20;;;29.38;;
42866;SDS011;39461;40.948;73.006;2022-09-09T14:35:35;73.60;;;27.88;;
42866;SDS011;39461;40.948;73.006;2022-09-09T14:38:10;69.75;;;28.05;;
42866;SDS011;39461;40.948;73.006;2022-09-09T14:40:44;61.25;;;26.58;;
42866;SDS011;39461;40.948;73.006;2022-09-09T14:43:12;50.58;;;24.13;;
42866;SDS011;39461;40.948;73.006;2022-09-09T14:45:46;57.65;;;24.77;;
42866;SDS011;39461;40.948;73.006;2022-09-09T14:48:25;54.95;;;24.63;;
42866;SDS011;39461;40.948;73.006;2022-09-09T14:51:05;66.43;;;27.55;;
42866;SDS011;39461;40.948;73.006;2022-09-09T14:53:39;70.10;;;30.00;;
42866;SDS011;39461;40.948;73.006;2022-09-09T14:56:18;76.00;;;29.45;;
42866;SDS011;39461;40.948;73.006;2022-09-09T14:58:47;66.82;;;25.67;;
42866;SDS011;39461;40.948;73.006;2022-09-09T15:04:20;67.07;;;24.58;;
42866;SDS011;39461;40.948;73.006;2022-09-09T15:06:55;78.97;;;28.33;;
42866;SDS011;39461;40.948;73.006;2022-09-09T15:09:28;70.60;;;23.98;;
42866;SDS011;39461;40.948;73.006;2022-09-09T15:11:57;72.05;;;24.00;;
42866;SDS011;39461;40.948;73.006;2022-09-09T15:17:30;68.35;;;22.27;;
42866;SDS011;39461;40.948;73.006;2022-09-09T15:20:05;54.63;;;21.75;;
42866;SDS011;39461;40.948;73.006;2022-09-09T15:22:41;56.08;;;21.30;;
42866;SDS011;39461;40.948;73.006;2022-09-09T15:25:16;58.08;;;20.98;;
42866;SDS011;39461;40.948;73.006;2022-09-09T15:27:51;45.95;;;17.20;;
42866;SDS011;39461;40.948;73.006;2022-09-09T15:30:33;58.72;;;17.95;;
42866;SDS011;39461;40.948;73.006;2022-09-09T15:33:07;52.50;;;18.17;;
42866;SDS011;39461;40.948;73.006;2022-09-09T15:35:34;66.60;;;19.25;;
42866;SDS011;39461;40.948;73.006;2022-09-09T15:38:09;57.47;;;19.17;;
42866;SDS011;39461;40.948;73.006;2022-09-09T15:40:45;58.97;;;20.40;;
42866;SDS011;39461;40.948;73.006;2022-09-09T15:43:20;50.05;;;18.88;;
42866;SDS011;39461;40.948;73.006;2022-09-09T15:51:43;51.67;;;19.52;;
42866;SDS011;39461;40.948;73.006;2022-09-09T15:54:20;59.85;;;18.98;;
42866;SDS011;39461;40.948;73.006;2022-09-09T15:56:58;46.78;;;16.33;;
42866;SDS011;39461;40.948;73.006;2022-09-09T15:59:33;45.97;;;16.42;;
42866;SDS011;39461;40.948;73.006;2022-09-09T16:02:06;45.88;;;16.08;;
42866;SDS011;39461;40.948;73.006;2022-09-09T16:04:45;45.95;;;16.02;;
42866;SDS011;39461;40.948;73.006;2022-09-09T16:07:15;47.92;;;16.33;;
42866;SDS011;39461;40.948;73.006;2022-09-09T16:09:50;45.35;;;16.83;;
42866;SDS011;39461;40.948;73.006;2022-09-09T16:12:26;48.33;;;14.88;;
42866;SDS011;39461;40.948;73.006;2022-09-09T16:15:01;48.25;;;14.68;;
42866;SDS011;39461;40.948;73.006;2022-09-09T16:17:36;45.40;;;15.60;;
42866;SDS011;39461;40.948;73.006;2022-09-09T16:20:11;53.42;;;21.17;;
42866;SDS011;39461;40.948;73.006;2022-09-09T16:22:41;56.65;;;27.73;;
42866;SDS011;39461;40.948;73.006;2022-09-09T16:25:10;65.93;;;33.20;;
42866;SDS011;39461;40.948;73.006;2022-09-09T16:27:39;59.05;;;27.98;;
42866;SDS011;39461;40.948;73.006;2022-09-09T16:30:14;44.63;;;18.63;;
42866;SDS011;39461;40.948;73.006;2022-09-09T16:32:49;48.53;;;14.95;;
42866;SDS011;39461;40.948;73.006;2022-09-09T16:35:15;34.67;;;12.02;;
42866;SDS011;39461;40.948;73.006;2022-09-09T16:37:50;25.02;;;11.57;;
42866;SDS011;39461;40.948;73.006;2022-09-09T16:40:25;48.35;;;12.13;;
42866;SDS011;39461;40.948;73.006;2022-09-09T16:43:00;33.60;;;12.55;;
42866;SDS011;39461;40.948;73.006;2022-09-09T16:45:40;40.05;;;11.13;;
42866;SDS011;39461;40.948;73.006;2022-09-09T16:48:17;44.35;;;11.88;;
42866;SDS011;39461;40.948;73.006;2022-09-09T16:51:01;42.90;;;12.80;;
42866;SDS011;39461;40.948;73.006;2022-09-09T16:53:44;34.08;;;11.88;;
42866;SDS011;39461;40.948;73.006;2022-09-09T16:56:22;38.88;;;13.18;;
42866;SDS011;39461;40.948;73.006;2022-09-09T16:58:58;36.03;;;12.20;;
42866;SDS011;39461;40.948;73.006;2022-09-09T17:01:37;68.90;;;12.90;;
42866;SDS011;39461;40.948;73.006;2022-09-09T17:04:17;34.42;;;11.25;;
42866;SDS011;39461;40.948;73.006;2022-09-09T17:09:56;46.90;;;12.98;;
42866;SDS011;39461;40.948;73.006;2022-09-09T17:12:31;33.88;;;11.50;;
42866;SDS011;39461;40.948;73.006;2022-09-09T17:15:05;33.45;;;11.05;;
42866;SDS011;39461;40.948;73.006;2022-09-09T17:17:39;32.38;;;10.82;;
42866;SDS011;39461;40.948;73.006;2022-09-09T17:20:15;27.70;;;10.48;;
42866;SDS011;39461;40.948;73.006;2022-09-09T17:22:54;31.13;;;10.40;;
42866;SDS011;39461;40.948;73.006;2022-09-09T17:25:27;33.85;;;11.20;;
42866;SDS011;39461;40.948;73.006;2022-09-09T17:28:01;32.38;;;12.05;;
42866;SDS011;39461;40.948;73.006;2022-09-09T17:33:30;35.22;;;14.02;;
42866;SDS011;39461;40.948;73.006;2022-09-09T17:36:08;41.03;;;14.75;;
42866;SDS011;39461;40.948;73.006;2022-09-09T17:38:49;34.25;;;12.90;;
42866;SDS011;39461;40.948;73.006;2022-09-09T17:41:58;33.30;;;12.13;;
42866;SDS011;39461;40.948;73.006;2022-09-09T17:44:27;28.13;;;11.40;;
42866;SDS011;39461;40.948;73.006;2022-09-09T17:47:06;29.38;;;11.05;;
42866;SDS011;39461;40.948;73.006;2022-09-09T17:49:39;24.20;;;9.85;;
42866;SDS011;39461;40.948;73.006;2022-09-09T17:52:08;29.67;;;9.23;;
42866;SDS011;39461;40.948;73.006;2022-09-09T17:54:43;32.45;;;11.18;;
42866;SDS011;39461;40.948;73.006;2022-09-09T17:57:17;24.80;;;9.23;;
42866;SDS011;39461;40.948;73.006;2022-09-09T17:59:52;27.92;;;9.73;;
42866;SDS011;39461;40.948;73.006;2022-09-09T18:02:25;41.33;;;10.02;;
42866;SDS011;39461;40.948;73.006;2022-09-09T18:04:58;24.38;;;9.15;;
42866;SDS011;39461;40.948;73.006;2022-09-09T18:07:26;27.73;;;9.05;;
42866;SDS011;39461;40.948;73.006;2022-09-09T18:09:59;34.17;;;9.60;;
42866;SDS011;39461;40.948;73.006;2022-09-09T18:12:32;21.67;;;8.98;;
42866;SDS011;39461;40.948;73.006;2022-09-09T18:15:05;19.08;;;8.15;;
42866;SDS011;39461;40.948;73.006;2022-09-09T18:17:38;32.20;;;9.43;;
42866;SDS011;39461;40.948;73.006;2022-09-09T18:20:11;28.55;;;8.80;;
42866;SDS011;39461;40.948;73.006;2022-09-09T18:22:43;24.92;;;9.48;;
42866;SDS011;39461;40.948;73.006;2022-09-09T18:25:12;30.27;;;9.63;;
42866;SDS011;39461;40.948;73.006;2022-09-09T18:27:39;21.92;;;8.80;;
42866;SDS011;39461;40.948;73.006;2022-09-09T18:30:14;25.52;;;9.15;;
42866;SDS011;39461;40.948;73.006;2022-09-09T18:32:49;28.30;;;9.55;;
42866;SDS011;39461;40.948;73.006;2022-09-09T18:35:25;27.77;;;9.23;;
42866;SDS011;39461;40.948;73.006;2022-09-09T18:38:00;27.33;;;8.95;;
42866;SDS011;39461;40.948;73.006;2022-09-09T18:40:35;26.08;;;9.10;;
42866;SDS011;39461;40.948;73.006;2022-09-09T18:43:10;24.85;;;9.00;;
42866;SDS011;39461;40.948;73.006;2022-09-09T18:45:45;26.67;;;8.77;;
42866;SDS011;39461;40.948;73.006;2022-09-09T18:48:20;30.60;;;9.77;;
42866;SDS011;39461;40.948;73.006;2022-09-09T18:50:55;28.98;;;8.82;;
42866;SDS011;39461;40.948;73.006;2022-09-09T18:53:24;24.05;;;9.40;;
42866;SDS011;39461;40.948;73.006;2022-09-09T18:56:00;21.30;;;8.57;;
42866;SDS011;39461;40.948;73.006;2022-09-09T18:58:35;26.15;;;9.15;;
42866;SDS011;39461;40.948;73.006;2022-09-09T19:04:09;26.83;;;8.90;;
42866;SDS011;39461;40.948;73.006;2022-09-09T19:06:45;22.35;;;9.20;;
42866;SDS011;39461;40.948;73.006;2022-09-09T19:09:21;24.80;;;9.23;;
42866;SDS011;39461;40.948;73.006;2022-09-09T19:11:54;21.77;;;8.82;;
42866;SDS011;39461;40.948;73.006;2022-09-09T19:14:27;22.75;;;9.80;;
42866;SDS011;39461;40.948;73.006;2022-09-09T19:17:06;22.88;;;9.40;;
42866;SDS011;39461;40.948;73.006;2022-09-09T19:19:43;26.05;;;9.68;;
42866;SDS011;39461;40.948;73.006;2022-09-09T19:22:18;28.38;;;8.18;;
42866;SDS011;39461;40.948;73.006;2022-09-09T19:24:52;20.20;;;9.32;;
42866;SDS011;39461;40.948;73.006;2022-09-09T19:27:28;31.02;;;9.23;;
42866;SDS011;39461;40.948;73.006;2022-09-09T19:30:03;21.38;;;8.95;;
42866;SDS011;39461;40.948;73.006;2022-09-09T19:32:32;21.98;;;7.32;;
42866;SDS011;39461;40.948;73.006;2022-09-09T19:35:06;30.13;;;9.02;;
42866;SDS011;39461;40.948;73.006;2022-09-09T19:37:40;28.65;;;8.85;;
42866;SDS011;39461;40.948;73.006;2022-09-09T19:40:13;24.83;;;8.30;;
42866;SDS011;39461;40.948;73.006;2022-09-09T19:42:46;17.15;;;8.32;;
42866;SDS011;39461;40.948;73.006;2022-09-09T19:45:19;28.15;;;9.10;;
42866;SDS011;39461;40.948;73.006;2022-09-09T19:47:53;29.60;;;9.25;;
42866;SDS011;39461;40.948;73.006;2022-09-09T19:50:27;19.00;;;7.80;;
42866;SDS011;39461;40.948;73.006;2022-09-09T19:53:01;24.90;;;8.23;;
42866;SDS011;39461;40.948;73.006;2022-09-09T19:55:37;24.30;;;8.70;;
42866;SDS011;39461;40.948;73.006;2022-09-09T19:58:10;27.35;;;7.85;;
42866;SDS011;39461;40.948;73.006;2022-09-09T20:00:44;29.55;;;8.65;;
42866;SDS011;39461;40.948;73.006;2022-09-09T20:03:17;22.60;;;8.48;;
42866;SDS011;39461;40.948;73.006;2022-09-09T20:05:50;29.75;;;7.55;;
42866;SDS011;39461;40.948;73.006;2022-09-09T20:08:24;21.17;;;7.78;;
42866;SDS011;39461;40.948;73.006;2022-09-09T20:10:58;20.98;;;7.57;;
42866;SDS011;39461;40.948;73.006;2022-09-09T20:13:40;25.42;;;7.78;;
42866;SDS011;39461;40.948;73.006;2022-09-09T20:16:29;24.20;;;7.93;;
42866;SDS011;39461;40.948;73.006;2022-09-09T20:19:03;22.52;;;7.90;;
42866;SDS011;39461;40.948;73.006;2022-09-09T20:21:42;21.10;;;7.53;;
42866;SDS011;39461;40.948;73.006;2022-09-09T20:24:21;25.05;;;8.25;;
42866;SDS011;39461;40.948;73.006;2022-09-09T20:26:50;22.63;;;7.13;;
42866;SDS011;39461;40.948;73.006;2022-09-09T20:29:25;21.38;;;7.57;;
42866;SDS011;39461;40.948;73.006;2022-09-09T20:32:00;20.92;;;7.55;;